»·PEaware :: C-FAUX KSBD-KIFP

C-FAUX :: KSBD-KIFP

FLIGHT INFORMATION

Flight Status: Arrived
Operator: Privately registered:
Canada
More flights under this callsign
Pilot: Mike M. (17070)
Aircraft: CESSNA 207 TURBO STATIONAIR
(C207)
More flights by this aircraft type
Origin: KSBD San Bernardino Intl
United States
Destination: KIFP Laughlin/Bullhead Intl
United States
More flights between these airports :: More routes between these airports
Route: HEC GFS
File this flight plan on PilotEdge
Remarks: Cessna 207 Skywagon
Altitude:
(Current/Filed)
7,500ft
Speed:
(Current/Filed)
150kts
Departed: 27-Jun-18 02:43 PM
Arrived: 27-Jun-18 03:53 PM
Distance/Time
Traveled:
59nm/1:10
Distance/Time
To Go:
Arrived

Flight Plot

Page will automatically refresh every two minutes.

Flight plan parsing failed; only flown route is shown


Map Options




Map Legend


Flown Route
Filed Route
Departure Airport
Arrival Airport
Navaid (VOR, NDB)
Fix

Horizontal Profiles

Position Reports

Time Latitude Longitude Heading Altitude Ground
Speed
27-Jun-18 14:35 34.102166 -117.224730 93 1145ft 0kts
27-Jun-18 14:36 34.102166 -117.224730 93 1145ft 0kts
27-Jun-18 14:37 34.102166 -117.224730 93 1145ft 0kts
27-Jun-18 14:38 34.102166 -117.224730 93 1145ft 0kts
27-Jun-18 14:39 34.102051 -117.224642 207 1146ft 0kts
27-Jun-18 14:40 34.100641 -117.223820 79 1148ft 12kts
27-Jun-18 14:41 34.100954 -117.219847 149 1159ft 9kts
27-Jun-18 14:42 34.100559 -117.219695 164 1159ft 8kts
27-Jun-18 14:43 34.095562 -117.238374 302 1738ft 95kts
27-Jun-18 14:44 34.119008 -117.220359 32 2888ft 114kts
27-Jun-18 14:45 34.146646 -117.206103 6 3890ft 114kts
27-Jun-18 14:46 34.175666 -117.187908 23 4756ft 121kts
27-Jun-18 14:47 34.205989 -117.169046 25 5505ft 124kts
27-Jun-18 14:48 34.232819 -117.147555 41 6537ft 111kts
27-Jun-18 14:49 34.256232 -117.119271 43 7313ft 130kts
27-Jun-18 14:50 34.279061 -117.085893 42 7936ft 132kts
27-Jun-18 14:51 34.304920 -117.053977 36 8374ft 139kts
27-Jun-18 14:52 34.331833 -117.023920 40 9098ft 121kts
27-Jun-18 14:53 34.356680 -116.993549 41 9497ft 139kts
27-Jun-18 14:54 34.385616 -116.959161 41 9480ft 148kts
27-Jun-18 14:55 34.415332 -116.924310 41 9463ft 148kts
27-Jun-18 14:56 34.444955 -116.889657 41 9451ft 148kts
27-Jun-18 14:57 34.474726 -116.854913 41 9446ft 148kts
27-Jun-18 14:58 34.504749 -116.820976 36 9446ft 148kts
27-Jun-18 14:59 34.531720 -116.783899 36 9450ft 147kts
27-Jun-18 15:00 34.565211 -116.756578 42 9445ft 148kts
27-Jun-18 15:01 34.593641 -116.720341 43 9446ft 148kts
27-Jun-18 15:02 34.622114 -116.684174 43 9446ft 148kts
27-Jun-18 15:03 34.650732 -116.647979 43 9446ft 148kts
27-Jun-18 15:04 34.679313 -116.611857 43 9448ft 148kts
27-Jun-18 15:05 34.707962 -116.575650 42 9449ft 148kts
27-Jun-18 15:06 34.736622 -116.539450 43 9447ft 148kts
27-Jun-18 15:07 34.765232 -116.503235 43 9448ft 148kts
27-Jun-18 15:08 34.792416 -116.468821 43 9447ft 148kts
27-Jun-18 15:09 34.821073 -116.432490 42 9447ft 148kts
27-Jun-18 15:10 34.849676 -116.396227 43 9448ft 148kts
27-Jun-18 15:11 34.878177 -116.360026 43 9458ft 148kts
27-Jun-18 15:12 34.906232 -116.323953 44 9470ft 147kts
27-Jun-18 15:13 34.934430 -116.288060 44 9463ft 146kts
27-Jun-18 15:14 34.962564 -116.252213 44 9472ft 147kts
27-Jun-18 15:15 34.990919 -116.215993 44 9477ft 147kts
27-Jun-18 15:16 35.019094 -116.179709 53 9472ft 147kts
27-Jun-18 15:17 35.022341 -116.131970 91 9477ft 143kts
27-Jun-18 15:18 35.023839 -116.083500 90 9477ft 143kts
27-Jun-18 15:19 35.025326 -116.035097 91 9477ft 142kts
27-Jun-18 15:20 35.026779 -115.986820 90 9477ft 142kts
27-Jun-18 15:21 35.028259 -115.938435 90 9476ft 142kts
27-Jun-18 15:22 35.029684 -115.890067 90 9479ft 142kts
27-Jun-18 15:23 35.030608 -115.849642 90 9483ft 143kts
27-Jun-18 15:24 35.031403 -115.801051 90 9488ft 143kts
27-Jun-18 15:25 35.031828 -115.752490 90 9493ft 143kts
27-Jun-18 15:26 35.031872 -115.703660 90 9498ft 143kts
27-Jun-18 15:27 35.035777 -115.655736 74 9493ft 144kts
27-Jun-18 15:28 35.048612 -115.600481 74 9463ft 145kts
27-Jun-18 15:29 35.058041 -115.561022 74 9443ft 145kts
27-Jun-18 15:30 35.069686 -115.513851 74 9421ft 144kts
27-Jun-18 15:31 35.081417 -115.466871 76 9405ft 144kts
27-Jun-18 15:32 35.092102 -115.419652 76 9396ft 143kts
27-Jun-18 15:33 35.102703 -115.372862 76 9390ft 141kts
27-Jun-18 15:34 35.113115 -115.327233 76 9384ft 139kts
27-Jun-18 15:35 35.123662 -115.279132 83 8906ft 150kts
27-Jun-18 15:36 35.127285 -115.228611 89 8397ft 149kts
27-Jun-18 15:37 35.130548 -115.177887 88 7884ft 149kts
27-Jun-18 15:38 35.133987 -115.127156 89 7385ft 149kts
27-Jun-18 15:39 35.137690 -115.078723 88 7348ft 140kts
27-Jun-18 15:40 35.141666 -115.032627 88 7516ft 138kts
27-Jun-18 15:41 35.145824 -114.985441 88 7509ft 140kts
27-Jun-18 15:42 35.150147 -114.938043 89 7511ft 140kts
27-Jun-18 15:43 35.150846 -114.890747 94 7508ft 139kts
27-Jun-18 15:44 35.151198 -114.843396 95 7350ft 140kts
27-Jun-18 15:45 35.151718 -114.798938 94 6496ft 131kts
27-Jun-18 15:46 35.152197 -114.753816 94 5528ft 127kts
27-Jun-18 15:47 35.153132 -114.716511 94 5504ft 95kts
27-Jun-18 15:48 35.161819 -114.675139 71 3504ft 150kts
27-Jun-18 15:49 35.175023 -114.630929 80 1936ft 127kts
27-Jun-18 15:50 35.182247 -114.596002 82 1485ft 96kts
27-Jun-18 15:51 35.183255 -114.563652 136 1163ft 84kts
27-Jun-18 15:52 35.164151 -114.560110 177 634ft 52kts
27-Jun-18 15:53 35.162379 -114.559013 39 647ft 0kts
27-Jun-18 15:54 35.162640 -114.558659 56 649ft 5kts
27-Jun-18 15:55 35.159955 -114.558355 174 660ft 9kts
27-Jun-18 15:56 35.159905 -114.556345 96 678ft 0kts
27-Jun-18 15:59 34.257937 -118.411094 318 982ft 0kts
27-Jun-18 16:00 34.260591 -118.413409 138 998ft 0kts
27-Jun-18 16:01 34.260591 -118.413409 138 998ft 0kts

Navigation Log

Ident Type
Flight plan parsing failed, navigation log unavailable